KLEX Airport (Blue Grass) Information

FAA: LEX - ICAO: KLEX

KLEX Airport Location

State Kentucky
County Fayette
City Lexington
KLEX Airport is 4 miles west of Lexington, KY.
Latitude 38-02-12.3000N
Longitude 084-36-31.1000W
Elevation 979ft

KLEX Airport METARs

METAR KLEX 201854Z 26009KT 10SM FEW037 SCT046 29/21 A2981 RMK AO2 SLP086 T02890206 $
Altimeter 29.81"
Temperature 28.9°C (84.0°F)
Wind 260° at 9KT
Clouds few at 3,700ft scattered at 4,600ft
Visibility 10.0mi
Time observed: 2021-06-20T18:54:00Z

KLEX Airport Details

Status Operational
Activation July 1944
Ownership Public
Usage Public
Chart CINCINNATI
ATC on-site Yes
Beacon schedule sunset-sunrise
Beacon color clear green

KLEX Airport Contacts

Owner LEXINGTON-FAYETTE CO ARPT BRD
Owner address 4000 TERMINAL DRIVE, SUITE 206, LEXINGTON, KY 40510
Owner phone 859-425-3100
Manager JAMES STANLEY
Manager address 540 JETTS DRIVE, JACKSON, KY 41339
Manager phone 606-666-6449

KLEX Airport (Blue Grass) Radio Frequencies

KLEX (Airport) Radio Frequencies

UNICOM 122.95
Common traffic advisory frequency (CTAF) N/A